sensor_id;sensor_type;location;lat;lon;timestamp;pressure;altitude;pressure_sealevel;temperature;humidity
6532;BME280;3299;42.004;24.868;2023-04-10T00:00:03;98374.44;;;8.09;80.47
6532;BME280;3299;42.004;24.868;2023-04-10T00:02:28;98339.59;;;7.74;84.65
6532;BME280;3299;42.004;24.868;2023-04-10T00:04:54;98327.06;;;7.54;86.59
6532;BME280;3299;42.004;24.868;2023-04-10T00:07:19;98295.41;;;7.38;87.04
6532;BME280;3299;42.004;24.868;2023-04-10T00:09:45;98379.00;;;7.90;87.28
6532;BME280;3299;42.004;24.868;2023-04-10T00:12:10;98359.78;;;7.82;87.63
6532;BME280;3299;42.004;24.868;2023-04-10T00:14:36;98297.31;;;7.35;88.52
6532;BME280;3299;42.004;24.868;2023-04-10T00:17:01;98275.88;;;7.20;89.13
6532;BME280;3299;42.004;24.868;2023-04-10T00:19:27;98363.28;;;7.81;89.02
6532;BME280;3299;42.004;24.868;2023-04-10T00:21:52;98355.75;;;7.48;91.10
6532;BME280;3299;42.004;24.868;2023-04-10T00:24:18;98357.75;;;7.43;91.66
6532;BME280;3299;42.004;24.868;2023-04-10T00:26:43;98341.94;;;7.49;91.67
6532;BME280;3299;42.004;24.868;2023-04-10T00:29:09;98259.03;;;6.85;91.98
6532;BME280;3299;42.004;24.868;2023-04-10T00:31:35;98315.16;;;7.08;93.52
6532;BME280;3299;42.004;24.868;2023-04-10T00:34:00;98274.03;;;6.93;92.08
6532;BME280;3299;42.004;24.868;2023-04-10T00:36:25;98330.81;;;7.19;92.06
6532;BME280;3299;42.004;24.868;2023-04-10T00:38:52;98326.06;;;7.27;91.95
6532;BME280;3299;42.004;24.868;2023-04-10T00:41:17;98311.81;;;7.22;91.21
6532;BME280;3299;42.004;24.868;2023-04-10T00:43:43;98275.06;;;7.04;91.08
6532;BME280;3299;42.004;24.868;2023-04-10T00:46:09;98294.22;;;7.14;90.64
6532;BME280;3299;42.004;24.868;2023-04-10T00:48:36;98272.84;;;6.98;91.05
6532;BME280;3299;42.004;24.868;2023-04-10T00:51:02;98232.34;;;6.72;90.51
6532;BME280;3299;42.004;24.868;2023-04-10T00:53:28;98264.56;;;6.93;89.57
6532;BME280;3299;42.004;24.868;2023-04-10T00:55:55;98339.31;;;7.35;89.87
6532;BME280;3299;42.004;24.868;2023-04-10T00:58:21;98275.00;;;7.06;90.59
6532;BME280;3299;42.004;24.868;2023-04-10T01:00:47;98285.38;;;7.04;90.91
6532;BME280;3299;42.004;24.868;2023-04-10T01:03:15;98217.81;;;6.71;90.44
6532;BME280;3299;42.004;24.868;2023-04-10T01:14:32;98319.25;;;7.26;89.58
6532;BME280;3299;42.004;24.868;2023-04-10T01:17:07;98308.47;;;7.20;90.24
6532;BME280;3299;42.004;24.868;2023-04-10T01:20:09;98308.41;;;7.21;89.48
6532;BME280;3299;42.004;24.868;2023-04-10T01:25:42;98311.31;;;7.15;88.65
6532;BME280;3299;42.004;24.868;2023-04-10T01:30:45;98229.94;;;6.69;88.88
6532;BME280;3299;42.004;24.868;2023-04-10T01:33:12;98263.09;;;6.89;88.51
6532;BME280;3299;42.004;24.868;2023-04-10T01:35:42;98296.19;;;6.95;89.68
6532;BME280;3299;42.004;24.868;2023-04-10T01:38:09;98297.19;;;6.93;90.36
6532;BME280;3299;42.004;24.868;2023-04-10T01:40:38;98300.22;;;6.99;89.89
6532;BME280;3299;42.004;24.868;2023-04-10T01:43:07;98300.97;;;7.01;90.45
6532;BME280;3299;42.004;24.868;2023-04-10T01:45:34;98298.00;;;6.93;91.62
6532;BME280;3299;42.004;24.868;2023-04-10T01:48:00;98307.22;;;6.97;91.42
6532;BME280;3299;42.004;24.868;2023-04-10T01:50:27;98237.06;;;6.64;90.58
6532;BME280;3299;42.004;24.868;2023-04-10T01:52:55;98243.56;;;6.56;90.73
6532;BME280;3299;42.004;24.868;2023-04-10T01:55:22;98291.88;;;6.80;91.50
6532;BME280;3299;42.004;24.868;2023-04-10T01:57:48;98210.91;;;6.27;91.91
6532;BME280;3299;42.004;24.868;2023-04-10T02:00:15;98273.06;;;6.64;91.71
6532;BME280;3299;42.004;24.868;2023-04-10T02:02:41;98254.25;;;6.48;92.45
6532;BME280;3299;42.004;24.868;2023-04-10T02:05:07;98233.13;;;6.28;92.43
6532;BME280;3299;42.004;24.868;2023-04-10T02:07:40;98278.06;;;6.52;91.68
6532;BME280;3299;42.004;24.868;2023-04-10T02:10:22;98246.22;;;6.39;90.40
6532;BME280;3299;42.004;24.868;2023-04-10T02:12:54;98272.94;;;6.52;90.94
6532;BME280;3299;42.004;24.868;2023-04-10T02:15:23;98231.56;;;6.25;90.58
6532;BME280;3299;42.004;24.868;2023-04-10T02:17:51;98302.44;;;6.60;90.87
6532;BME280;3299;42.004;24.868;2023-04-10T02:20:17;98230.06;;;6.21;91.30
6532;BME280;3299;42.004;24.868;2023-04-10T02:22:43;98229.00;;;6.25;90.37
6532;BME280;3299;42.004;24.868;2023-04-10T02:25:09;98261.28;;;6.45;89.56
6532;BME280;3299;42.004;24.868;2023-04-10T02:27:35;98262.72;;;6.35;90.09
6532;BME280;3299;42.004;24.868;2023-04-10T02:30:02;98291.81;;;6.66;89.67
6532;BME280;3299;42.004;24.868;2023-04-10T02:32:28;98264.38;;;6.51;88.86
6532;BME280;3299;42.004;24.868;2023-04-10T02:34:54;98208.44;;;6.10;89.46
6532;BME280;3299;42.004;24.868;2023-04-10T02:37:20;98261.63;;;6.39;89.82
6532;BME280;3299;42.004;24.868;2023-04-10T02:39:46;98294.44;;;6.80;88.84
6532;BME280;3299;42.004;24.868;2023-04-10T02:42:11;98235.19;;;6.37;89.49
6532;BME280;3299;42.004;24.868;2023-04-10T02:44:37;98282.38;;;6.51;89.46
6532;BME280;3299;42.004;24.868;2023-04-10T02:47:04;98292.66;;;6.51;88.83
6532;BME280;3299;42.004;24.868;2023-04-10T02:49:30;98239.03;;;6.14;90.96
6532;BME280;3299;42.004;24.868;2023-04-10T02:51:55;98275.72;;;6.32;91.94
6532;BME280;3299;42.004;24.868;2023-04-10T02:54:21;98267.53;;;6.25;92.95
6532;BME280;3299;42.004;24.868;2023-04-10T02:56:47;98280.19;;;6.44;91.15
6532;BME280;3299;42.004;24.868;2023-04-10T02:59:12;98252.53;;;6.33;90.96
6532;BME280;3299;42.004;24.868;2023-04-10T03:01:37;98291.00;;;6.50;89.99
6532;BME280;3299;42.004;24.868;2023-04-10T03:04:04;98285.84;;;6.50;88.27
6532;BME280;3299;42.004;24.868;2023-04-10T03:06:32;98285.66;;;6.38;91.38
6532;BME280;3299;42.004;24.868;2023-04-10T03:08:57;98288.91;;;6.41;91.69
6532;BME280;3299;42.004;24.868;2023-04-10T03:11:22;98294.81;;;6.43;92.64
6532;BME280;3299;42.004;24.868;2023-04-10T03:13:48;98205.13;;;5.92;92.09
6532;BME280;3299;42.004;24.868;2023-04-10T03:16:14;98266.78;;;6.23;93.84
6532;BME280;3299;42.004;24.868;2023-04-10T03:18:41;98285.34;;;6.28;94.24
6532;BME280;3299;42.004;24.868;2023-04-10T03:21:06;98189.81;;;5.74;93.53
6532;BME280;3299;42.004;24.868;2023-04-10T03:23:32;98256.28;;;5.95;94.81
6532;BME280;3299;42.004;24.868;2023-04-10T03:25:57;98270.56;;;6.16;94.59
6532;BME280;3299;42.004;24.868;2023-04-10T03:28:23;98242.56;;;5.96;93.88
6532;BME280;3299;42.004;24.868;2023-04-10T03:30:51;98190.16;;;5.68;92.29
6532;BME280;3299;42.004;24.868;2023-04-10T03:33:16;98259.91;;;6.08;92.33
6532;BME280;3299;42.004;24.868;2023-04-10T03:35:42;98278.38;;;6.30;92.38
6532;BME280;3299;42.004;24.868;2023-04-10T03:38:07;98228.56;;;6.02;92.10
6532;BME280;3299;42.004;24.868;2023-04-10T03:40:33;98277.47;;;6.31;92.07
6532;BME280;3299;42.004;24.868;2023-04-10T03:42:59;98290.47;;;6.44;91.82
6532;BME280;3299;42.004;24.868;2023-04-10T03:45:24;98285.59;;;6.39;91.97
6532;BME280;3299;42.004;24.868;2023-04-10T03:47:51;98241.41;;;6.02;92.64
6532;BME280;3299;42.004;24.868;2023-04-10T03:50:17;98219.03;;;5.71;93.30
6532;BME280;3299;42.004;24.868;2023-04-10T03:52:43;98201.41;;;5.65;93.10
6532;BME280;3299;42.004;24.868;2023-04-10T03:55:08;98245.44;;;5.90;93.10
6532;BME280;3299;42.004;24.868;2023-04-10T03:57:34;98268.34;;;6.10;93.36
6532;BME280;3299;42.004;24.868;2023-04-10T03:59:59;98275.47;;;6.21;93.08
6532;BME280;3299;42.004;24.868;2023-04-10T04:02:25;98292.63;;;6.20;94.36
6532;BME280;3299;42.004;24.868;2023-04-10T04:04:51;98225.72;;;5.91;93.09
6532;BME280;3299;42.004;24.868;2023-04-10T04:07:17;98291.47;;;6.41;92.33
6532;BME280;3299;42.004;24.868;2023-04-10T04:09:42;98306.47;;;6.33;92.58
6532;BME280;3299;42.004;24.868;2023-04-10T04:12:07;98224.34;;;6.01;91.96
6532;BME280;3299;42.004;24.868;2023-04-10T04:14:33;98305.91;;;6.44;92.43
6532;BME280;3299;42.004;24.868;2023-04-10T04:16:58;98207.59;;;5.94;92.33
6532;BME280;3299;42.004;24.868;2023-04-10T04:19:24;98299.88;;;6.60;91.97
6532;BME280;3299;42.004;24.868;2023-04-10T04:21:50;98257.59;;;6.35;91.24
6532;BME280;3299;42.004;24.868;2023-04-10T04:24:15;98262.22;;;6.44;90.96
6532;BME280;3299;42.004;24.868;2023-04-10T04:26:40;98281.88;;;6.60;90.73
6532;BME280;3299;42.004;24.868;2023-04-10T04:29:06;98309.03;;;6.80;89.89
6532;BME280;3299;42.004;24.868;2023-04-10T04:31:31;98273.41;;;6.58;89.67
6532;BME280;3299;42.004;24.868;2023-04-10T04:33:58;98304.88;;;6.77;89.53
6532;BME280;3299;42.004;24.868;2023-04-10T04:36:23;98318.97;;;6.86;89.78
6532;BME280;3299;42.004;24.868;2023-04-10T04:38:48;98283.66;;;6.74;89.01
6532;BME280;3299;42.004;24.868;2023-04-10T04:41:14;98274.63;;;6.67;89.02
6532;BME280;3299;42.004;24.868;2023-04-10T04:43:40;98301.16;;;6.83;89.37
6532;BME280;3299;42.004;24.868;2023-04-10T04:46:05;98315.53;;;6.87;89.00
6532;BME280;3299;42.004;24.868;2023-04-10T04:48:31;98307.88;;;6.85;88.99
6532;BME280;3299;42.004;24.868;2023-04-10T04:50:56;98291.97;;;6.79;88.55
6532;BME280;3299;42.004;24.868;2023-04-10T04:53:21;98240.06;;;6.57;88.05
6532;BME280;3299;42.004;24.868;2023-04-10T04:55:47;98227.47;;;6.52;87.96
6532;BME280;3299;42.004;24.868;2023-04-10T04:58:12;98316.88;;;7.08;88.36
6532;BME280;3299;42.004;24.868;2023-04-10T05:00:38;98325.84;;;7.16;87.52
6532;BME280;3299;42.004;24.868;2023-04-10T05:03:03;98272.94;;;6.97;87.04
6532;BME280;3299;42.004;24.868;2023-04-10T05:05:30;98308.34;;;7.07;86.88
6532;BME280;3299;42.004;24.868;2023-04-10T05:07:55;98307.50;;;7.07;87.64
6532;BME280;3299;42.004;24.868;2023-04-10T05:10:21;98261.25;;;6.91;86.90
6532;BME280;3299;42.004;24.868;2023-04-10T05:12:46;98229.69;;;6.74;86.05
6532;BME280;3299;42.004;24.868;2023-04-10T05:15:11;98282.41;;;6.96;86.77
6532;BME280;3299;42.004;24.868;2023-04-10T05:17:37;98293.38;;;7.14;86.41
6532;BME280;3299;42.004;24.868;2023-04-10T05:20:02;98230.91;;;6.82;86.32
6532;BME280;3299;42.004;24.868;2023-04-10T05:22:29;98315.56;;;7.46;85.15
6532;BME280;3299;42.004;24.868;2023-04-10T05:24:55;98238.34;;;7.02;84.92
6532;BME280;3299;42.004;24.868;2023-04-10T05:27:20;98266.03;;;7.27;83.83
6532;BME280;3299;42.004;24.868;2023-04-10T05:29:46;98336.09;;;7.75;83.91
6532;BME280;3299;42.004;24.868;2023-04-10T05:32:12;98244.72;;;7.25;83.89
6532;BME280;3299;42.004;24.868;2023-04-10T05:34:38;98308.69;;;7.74;82.70
6532;BME280;3299;42.004;24.868;2023-04-10T05:37:03;98245.22;;;7.31;82.96
6532;BME280;3299;42.004;24.868;2023-04-10T05:39:29;98249.91;;;7.39;82.50
6532;BME280;3299;42.004;24.868;2023-04-10T05:41:55;98303.84;;;7.84;82.19
6532;BME280;3299;42.004;24.868;2023-04-10T05:44:20;98293.44;;;7.85;81.74
6532;BME280;3299;42.004;24.868;2023-04-10T05:46:46;98257.19;;;7.74;80.83
6532;BME280;3299;42.004;24.868;2023-04-10T05:49:11;98284.69;;;8.02;80.37
6532;BME280;3299;42.004;24.868;2023-04-10T05:51:37;98315.09;;;8.25;80.26
6532;BME280;3299;42.004;24.868;2023-04-10T05:54:02;98322.09;;;8.37;79.89
6532;BME280;3299;42.004;24.868;2023-04-10T05:56:27;98310.38;;;8.45;78.63
6532;BME280;3299;42.004;24.868;2023-04-10T05:58:53;98332.72;;;8.73;78.56
6532;BME280;3299;42.004;24.868;2023-04-10T06:01:18;98298.91;;;8.63;78.11
6532;BME280;3299;42.004;24.868;2023-04-10T06:03:44;98290.47;;;8.88;77.48
6532;BME280;3299;42.004;24.868;2023-04-10T06:06:09;98334.16;;;9.17;76.00
6532;BME280;3299;42.004;24.868;2023-04-10T06:08:35;98279.06;;;9.04;75.05
6532;BME280;3299;42.004;24.868;2023-04-10T06:11:00;98249.16;;;9.02;75.03
6532;BME280;3299;42.004;24.868;2023-04-10T06:13:27;98303.06;;;9.45;74.29
6532;BME280;3299;42.004;24.868;2023-04-10T06:15:52;98282.88;;;9.50;73.35
6532;BME280;3299;42.004;24.868;2023-04-10T06:18:18;98261.81;;;9.56;72.97
6532;BME280;3299;42.004;24.868;2023-04-10T06:20:43;98333.91;;;10.23;72.03
6532;BME280;3299;42.004;24.868;2023-04-10T06:23:08;98289.66;;;10.15;70.75
6532;BME280;3299;42.004;24.868;2023-04-10T06:25:34;98330.03;;;10.53;69.51
6532;BME280;3299;42.004;24.868;2023-04-10T06:27:59;98248.91;;;10.18;69.47
6532;BME280;3299;42.004;24.868;2023-04-10T06:30:25;98264.25;;;10.45;68.53
6532;BME280;3299;42.004;24.868;2023-04-10T06:32:50;98326.63;;;10.89;66.23
6532;BME280;3299;42.004;24.868;2023-04-10T06:35:16;98316.66;;;10.95;65.88
6532;BME280;3299;42.004;24.868;2023-04-10T06:37:41;98342.53;;;11.19;65.87
6532;BME280;3299;42.004;24.868;2023-04-10T06:40:09;98348.72;;;11.29;66.65
6532;BME280;3299;42.004;24.868;2023-04-10T06:42:35;98350.88;;;11.35;65.94
6532;BME280;3299;42.004;24.868;2023-04-10T06:45:01;98291.53;;;11.08;65.44
6532;BME280;3299;42.004;24.868;2023-04-10T06:47:27;98345.84;;;11.44;65.50
6532;BME280;3299;42.004;24.868;2023-04-10T06:49:52;98365.66;;;11.56;64.71
6532;BME280;3299;42.004;24.868;2023-04-10T06:52:18;98351.38;;;11.63;64.51
6532;BME280;3299;42.004;24.868;2023-04-10T06:54:43;98316.16;;;11.61;64.32
6532;BME280;3299;42.004;24.868;2023-04-10T06:57:09;98337.28;;;11.89;64.47
6532;BME280;3299;42.004;24.868;2023-04-10T06:59:34;98340.50;;;12.04;64.44
6532;BME280;3299;42.004;24.868;2023-04-10T07:02:01;98318.03;;;12.15;63.04
6532;BME280;3299;42.004;24.868;2023-04-10T07:04:27;98362.22;;;12.47;62.90
6532;BME280;3299;42.004;24.868;2023-04-10T07:06:52;98338.44;;;12.42;60.57
6532;BME280;3299;42.004;24.868;2023-04-10T07:09:18;98359.41;;;12.61;59.52
6532;BME280;3299;42.004;24.868;2023-04-10T07:11:43;98373.09;;;12.74;58.86
6532;BME280;3299;42.004;24.868;2023-04-10T07:14:09;98374.63;;;12.76;58.65
6532;BME280;3299;42.004;24.868;2023-04-10T07:16:34;98376.75;;;12.82;57.61
6532;BME280;3299;42.004;24.868;2023-04-10T07:19:00;98322.59;;;12.56;56.71
6532;BME280;3299;42.004;24.868;2023-04-10T07:21:25;98357.88;;;12.80;56.37
6532;BME280;3299;42.004;24.868;2023-04-10T07:23:51;98378.50;;;12.82;57.25
6532;BME280;3299;42.004;24.868;2023-04-10T07:26:17;98344.91;;;12.69;57.64
6532;BME280;3299;42.004;24.868;2023-04-10T07:28:42;98295.72;;;12.46;58.08
6532;BME280;3299;42.004;24.868;2023-04-10T07:31:09;98383.94;;;13.12;57.58
6532;BME280;3299;42.004;24.868;2023-04-10T07:33:35;98342.03;;;12.94;56.68
6532;BME280;3299;42.004;24.868;2023-04-10T07:36:00;98344.16;;;13.00;56.69
6532;BME280;3299;42.004;24.868;2023-04-10T07:38:27;98367.16;;;12.94;57.87
6532;BME280;3299;42.004;24.868;2023-04-10T07:40:56;98331.19;;;12.67;57.02
6532;BME280;3299;42.004;24.868;2023-04-10T07:43:22;98349.81;;;12.83;57.68
6532;BME280;3299;42.004;24.868;2023-04-10T07:45:47;98374.53;;;13.00;57.11
6532;BME280;3299;42.004;24.868;2023-04-10T07:48:13;98359.50;;;13.03;56.55
6532;BME280;3299;42.004;24.868;2023-04-10T07:50:38;98337.34;;;12.66;55.87
6532;BME280;3299;42.004;24.868;2023-04-10T07:53:04;98321.44;;;12.60;56.02
6532;BME280;3299;42.004;24.868;2023-04-10T07:55:40;98297.34;;;12.47;56.65
6532;BME280;3299;42.004;24.868;2023-04-10T07:58:06;98347.50;;;12.69;56.88
6532;BME280;3299;42.004;24.868;2023-04-10T08:00:32;98340.97;;;12.75;56.68
6532;BME280;3299;42.004;24.868;2023-04-10T08:02:57;98291.56;;;12.65;55.79
6532;BME280;3299;42.004;24.868;2023-04-10T08:05:23;98293.69;;;12.60;54.73
6532;BME280;3299;42.004;24.868;2023-04-10T08:07:49;98332.00;;;12.79;55.27
6532;BME280;3299;42.004;24.868;2023-04-10T08:10:14;98334.72;;;12.88;55.75
6532;BME280;3299;42.004;24.868;2023-04-10T08:12:40;98339.81;;;13.01;55.88
6532;BME280;3299;42.004;24.868;2023-04-10T08:15:06;98280.38;;;12.65;55.33
6532;BME280;3299;42.004;24.868;2023-04-10T08:17:31;98365.97;;;13.20;54.96
6532;BME280;3299;42.004;24.868;2023-04-10T08:19:57;98352.88;;;13.10;54.58
6532;BME280;3299;42.004;24.868;2023-04-10T08:22:22;98280.66;;;12.82;54.27
6532;BME280;3299;42.004;24.868;2023-04-10T08:24:47;98351.59;;;13.36;54.09
6532;BME280;3299;42.004;24.868;2023-04-10T08:27:13;98301.88;;;13.09;53.03
6532;BME280;3299;42.004;24.868;2023-04-10T08:29:41;98345.19;;;13.09;54.25
6532;BME280;3299;42.004;24.868;2023-04-10T08:32:07;98313.81;;;13.01;54.94
6532;BME280;3299;42.004;24.868;2023-04-10T08:34:32;98352.72;;;13.23;55.15
6532;BME280;3299;42.004;24.868;2023-04-10T08:36:58;98349.22;;;12.91;55.88
6532;BME280;3299;42.004;24.868;2023-04-10T08:39:23;98334.59;;;13.01;55.41
6532;BME280;3299;42.004;24.868;2023-04-10T08:41:49;98278.72;;;12.53;55.50
6532;BME280;3299;42.004;24.868;2023-04-10T08:44:15;98355.94;;;13.15;55.87
6532;BME280;3299;42.004;24.868;2023-04-10T08:46:42;98299.34;;;12.65;56.96
6532;BME280;3299;42.004;24.868;2023-04-10T08:49:31;98342.75;;;12.96;57.77
6532;BME280;3299;42.004;24.868;2023-04-10T08:51:57;98342.41;;;12.68;58.95
6532;BME280;3299;42.004;24.868;2023-04-10T08:54:32;98332.50;;;12.51;59.34
6532;BME280;3299;42.004;24.868;2023-04-10T08:56:58;98252.91;;;11.96;59.78
6532;BME280;3299;42.004;24.868;2023-04-10T08:59:27;98292.53;;;12.31;60.66
6532;BME280;3299;42.004;24.868;2023-04-10T09:01:54;98328.97;;;12.41;61.32
6532;BME280;3299;42.004;24.868;2023-04-10T09:04:20;98244.44;;;11.83;61.51
6532;BME280;3299;42.004;24.868;2023-04-10T09:06:46;98280.16;;;11.91;62.17
6532;BME280;3299;42.004;24.868;2023-04-10T09:09:11;98248.66;;;11.84;62.25
6532;BME280;3299;42.004;24.868;2023-04-10T09:16:46;98315.75;;;12.22;63.22
6532;BME280;3299;42.004;24.868;2023-04-10T09:19:12;98264.22;;;11.84;63.85
6532;BME280;3299;42.004;24.868;2023-04-10T09:21:37;98256.31;;;11.75;64.03
6532;BME280;3299;42.004;24.868;2023-04-10T09:24:03;98228.19;;;11.47;64.91
6532;BME280;3299;42.004;24.868;2023-04-10T09:26:30;98255.59;;;11.62;65.19
6532;BME280;3299;42.004;24.868;2023-04-10T09:29:04;98279.28;;;11.79;65.19
6532;BME280;3299;42.004;24.868;2023-04-10T09:31:34;98264.00;;;11.76;64.68
6532;BME280;3299;42.004;24.868;2023-04-10T09:36:38;98299.25;;;12.01;63.99
6532;BME280;3299;42.004;24.868;2023-04-10T09:39:06;98272.00;;;11.84;64.38
6532;BME280;3299;42.004;24.868;2023-04-10T09:41:32;98292.53;;;11.98;65.15
6532;BME280;3299;42.004;24.868;2023-04-10T09:44:26;98300.91;;;12.24;63.52
6532;BME280;3299;42.004;24.868;2023-04-10T09:46:53;98238.66;;;11.80;63.97
6532;BME280;3299;42.004;24.868;2023-04-10T09:49:19;98239.13;;;11.85;62.88
6532;BME280;3299;42.004;24.868;2023-04-10T09:51:44;98219.97;;;11.53;62.83
6532;BME280;3299;42.004;24.868;2023-04-10T09:54:11;98256.78;;;11.69;62.94
6532;BME280;3299;42.004;24.868;2023-04-10T09:56:38;98212.91;;;11.44;63.27
6532;BME280;3299;42.004;24.868;2023-04-10T09:59:05;98209.19;;;11.59;63.00
6532;BME280;3299;42.004;24.868;2023-04-10T10:01:31;98248.78;;;11.83;63.06
6532;BME280;3299;42.004;24.868;2023-04-10T10:04:02;98282.03;;;12.00;63.38
6532;BME280;3299;42.004;24.868;2023-04-10T10:06:30;98264.59;;;12.02;63.45
6532;BME280;3299;42.004;24.868;2023-04-10T10:09:03;98294.66;;;12.26;63.95
6532;BME280;3299;42.004;24.868;2023-04-10T10:11:31;98222.63;;;11.75;62.37
6532;BME280;3299;42.004;24.868;2023-04-10T10:13:59;98271.91;;;12.08;61.56
6532;BME280;3299;42.004;24.868;2023-04-10T10:16:45;98301.72;;;12.24;62.39
6532;BME280;3299;42.004;24.868;2023-04-10T10:21:51;98269.06;;;12.00;62.71
6532;BME280;3299;42.004;24.868;2023-04-10T10:24:18;98265.28;;;11.93;62.30
6532;BME280;3299;42.004;24.868;2023-04-10T10:26:46;98274.97;;;12.02;62.67
6532;BME280;3299;42.004;24.868;2023-04-10T10:29:14;98238.28;;;11.73;64.21
6532;BME280;3299;42.004;24.868;2023-04-10T10:31:41;98285.34;;;12.02;63.98
6532;BME280;3299;42.004;24.868;2023-04-10T10:34:07;98278.25;;;11.93;65.09
6532;BME280;3299;42.004;24.868;2023-04-10T10:36:38;98265.06;;;11.85;65.30
6532;BME280;3299;42.004;24.868;2023-04-10T10:41:43;98281.81;;;12.14;65.09
6532;BME280;3299;42.004;24.868;2023-04-10T10:44:47;98279.69;;;12.19;64.63
6532;BME280;3299;42.004;24.868;2023-04-10T10:47:43;98279.56;;;12.20;64.91
6532;BME280;3299;42.004;24.868;2023-04-10T10:50:10;98275.69;;;12.15;65.67
6532;BME280;3299;42.004;24.868;2023-04-10T10:52:49;98197.88;;;11.71;65.28
6532;BME280;3299;42.004;24.868;2023-04-10T11:00:17;98266.59;;;12.09;65.64
6532;BME280;3299;42.004;24.868;2023-04-10T11:02:43;98185.34;;;11.54;67.11
6532;BME280;3299;42.004;24.868;2023-04-10T11:05:09;98226.38;;;11.71;67.09
6532;BME280;3299;42.004;24.868;2023-04-10T11:11:00;98278.28;;;12.26;67.01
6532;BME280;3299;42.004;24.868;2023-04-10T11:13:39;98281.56;;;12.28;66.81
6532;BME280;3299;42.004;24.868;2023-04-10T11:16:07;98274.84;;;12.25;67.75
6532;BME280;3299;42.004;24.868;2023-04-10T11:21:09;98277.91;;;12.08;68.36
6532;BME280;3299;42.004;24.868;2023-04-10T11:23:35;98217.53;;;11.51;69.32
6532;BME280;3299;42.004;24.868;2023-04-10T11:26:02;98270.00;;;11.88;69.63
6532;BME280;3299;42.004;24.868;2023-04-10T11:31:03;98229.22;;;11.68;69.99
6532;BME280;3299;42.004;24.868;2023-04-10T11:33:37;98200.19;;;11.52;70.40
6532;BME280;3299;42.004;24.868;2023-04-10T11:36:03;98220.03;;;11.64;70.42
6532;BME280;3299;42.004;24.868;2023-04-10T11:38:29;98255.72;;;11.71;70.96
6532;BME280;3299;42.004;24.868;2023-04-10T11:40:56;98216.22;;;11.57;70.91
6532;BME280;3299;42.004;24.868;2023-04-10T11:43:22;98190.78;;;11.51;70.16
6532;BME280;3299;42.004;24.868;2023-04-10T11:45:47;98237.00;;;11.79;70.05
6532;BME280;3299;42.004;24.868;2023-04-10T11:48:14;98194.28;;;11.39;71.49
6532;BME280;3299;42.004;24.868;2023-04-10T11:50:41;98252.56;;;11.79;72.65
6532;BME280;3299;42.004;24.868;2023-04-10T11:53:19;98257.03;;;11.88;72.99
6532;BME280;3299;42.004;24.868;2023-04-10T11:55:45;98258.09;;;11.85;72.65
6532;BME280;3299;42.004;24.868;2023-04-10T11:58:40;98257.41;;;11.83;72.67
6532;BME280;3299;42.004;24.868;2023-04-10T12:01:06;98165.06;;;11.26;72.63
6532;BME280;3299;42.004;24.868;2023-04-10T12:03:41;98209.19;;;11.59;73.00
6532;BME280;3299;42.004;24.868;2023-04-10T12:06:11;98209.19;;;11.59;73.57
6532;BME280;3299;42.004;24.868;2023-04-10T12:08:39;98155.91;;;11.33;72.76
6532;BME280;3299;42.004;24.868;2023-04-10T12:11:06;98197.84;;;11.49;75.41
6532;BME280;3299;42.004;24.868;2023-04-10T12:13:32;98197.50;;;11.53;74.72
6532;BME280;3299;42.004;24.868;2023-04-10T12:15:59;98171.44;;;11.33;75.63
6532;BME280;3299;42.004;24.868;2023-04-10T12:18:27;98191.59;;;11.51;74.98
6532;BME280;3299;42.004;24.868;2023-04-10T12:20:53;98169.34;;;11.38;77.49
6532;BME280;3299;42.004;24.868;2023-04-10T12:23:22;98219.28;;;11.51;78.26
6532;BME280;3299;42.004;24.868;2023-04-10T12:25:48;98169.53;;;11.35;78.55
6532;BME280;3299;42.004;24.868;2023-04-10T12:28:18;98225.91;;;11.77;76.73
6532;BME280;3299;42.004;24.868;2023-04-10T12:30:48;98170.50;;;11.45;76.19
6532;BME280;3299;42.004;24.868;2023-04-10T12:33:20;98227.81;;;11.75;76.85
6532;BME280;3299;42.004;24.868;2023-04-10T12:35:45;98209.66;;;11.64;78.10
6532;BME280;3299;42.004;24.868;2023-04-10T12:38:11;98166.59;;;11.28;79.08
6532;BME280;3299;42.004;24.868;2023-04-10T12:40:36;98179.44;;;11.41;80.05
6532;BME280;3299;42.004;24.868;2023-04-10T12:43:03;98197.88;;;11.71;80.73
6532;BME280;3299;42.004;24.868;2023-04-10T12:45:44;98195.53;;;11.68;80.03
6532;BME280;3299;42.004;24.868;2023-04-10T12:48:09;98156.63;;;11.46;80.31
6532;BME280;3299;42.004;24.868;2023-04-10T12:50:45;98147.09;;;11.46;77.83
6532;BME280;3299;42.004;24.868;2023-04-10T12:53:14;98143.59;;;11.58;77.31
6532;BME280;3299;42.004;24.868;2023-04-10T12:55:40;98133.75;;;11.40;77.67
6532;BME280;3299;42.004;24.868;2023-04-10T12:58:17;98160.84;;;11.58;76.99
6532;BME280;3299;42.004;24.868;2023-04-10T13:00:47;98130.22;;;11.52;74.85
6532;BME280;3299;42.004;24.868;2023-04-10T13:03:12;98171.63;;;11.75;72.56
6532;BME280;3299;42.004;24.868;2023-04-10T13:05:38;98097.28;;;11.43;70.63
6532;BME280;3299;42.004;24.868;2023-04-10T13:08:03;98134.63;;;11.62;70.11
6532;BME280;3299;42.004;24.868;2023-04-10T13:10:29;98094.91;;;11.29;69.98
6532;BME280;3299;42.004;24.868;2023-04-10T13:12:54;98145.56;;;11.77;70.08
6532;BME280;3299;42.004;24.868;2023-04-10T13:15:20;98109.97;;;11.57;71.51
6532;BME280;3299;42.004;24.868;2023-04-10T13:17:45;98155.47;;;11.83;69.65
6532;BME280;3299;42.004;24.868;2023-04-10T13:20:11;98147.09;;;11.90;71.16
6532;BME280;3299;42.004;24.868;2023-04-10T13:22:37;98080.41;;;11.37;70.60
6532;BME280;3299;42.004;24.868;2023-04-10T13:25:04;98151.00;;;11.96;70.28
6532;BME280;3299;42.004;24.868;2023-04-10T13:27:30;98130.25;;;11.96;70.41
6532;BME280;3299;42.004;24.868;2023-04-10T13:29:55;98142.84;;;12.00;69.12
6532;BME280;3299;42.004;24.868;2023-04-10T13:32:20;98086.91;;;11.76;70.40
6532;BME280;3299;42.004;24.868;2023-04-10T13:34:46;98074.41;;;11.81;70.12
6532;BME280;3299;42.004;24.868;2023-04-10T13:37:11;98066.53;;;11.82;70.93
6532;BME280;3299;42.004;24.868;2023-04-10T13:39:37;98045.59;;;11.63;71.91
6532;BME280;3299;42.004;24.868;2023-04-10T13:42:03;98122.63;;;12.26;71.80
6532;BME280;3299;42.004;24.868;2023-04-10T13:44:28;98082.25;;;12.01;72.48
6532;BME280;3299;42.004;24.868;2023-04-10T13:46:54;98103.09;;;12.11;72.54
6532;BME280;3299;42.004;24.868;2023-04-10T13:49:19;98086.38;;;12.04;72.62
6532;BME280;3299;42.004;24.868;2023-04-10T13:51:46;98103.56;;;12.05;73.47
6532;BME280;3299;42.004;24.868;2023-04-10T13:54:12;98114.75;;;12.27;73.14